DLH9MU EDDF-EGPH
Flight info
| Callsign | DLH9MU |
|---|---|
| Flight time | 1h 37m |
| Altitude | 34000 |
| Route | OBOKA3D OBOKA Z28 DIBIR DCT BUDIP DCT MIMVA L602 EMLON M79 TENDO DCT AGPED |
| Aircraft | A320/M-SDE2E3FGIJ1LORWXYZ/HB1 |
Departure
| Time | 2026-04-15 05:29 |
|---|---|
| Airport | Frankfurt Main Airport (EDDF) |
Arrival
| Time | 2026-04-15 07:07 |
|---|---|
| Airport | Edinburgh Airport (EGPH) |
| Time | Latitude | Longitude | Altitude | Speed | Heading |
|---|---|---|---|---|---|
| 2026-04-15 04:53 | 50.04852 | 8.56946 | 356 ft | 0 kts | 295° |
| 2026-04-15 05:20 | 50.04851 | 8.56949 | 361 ft | 2 kts | 295° |
| 2026-04-15 05:21 | 50.04841 | 8.56986 | 359 ft | 4 kts | 294° |
| 2026-04-15 05:21 | 50.04830 | 8.57023 | 364 ft | 4 kts | 276° |
| 2026-04-15 05:21 | 50.04835 | 8.57059 | 361 ft | 4 kts | 224° |
| 2026-04-15 05:21 | 50.04846 | 8.57071 | 364 ft | 0 kts | 204° |
| 2026-04-15 05:22 | 50.04827 | 8.57058 | 362 ft | 4 kts | 205° |
| 2026-04-15 05:22 | 50.04802 | 8.57041 | 358 ft | 4 kts | 205° |
| 2026-04-15 05:22 | 50.04792 | 8.57034 | 358 ft | 0 kts | 205° |
| 2026-04-15 05:24 | 50.04787 | 8.57030 | 363 ft | 5 kts | 205° |
| 2026-04-15 05:24 | 50.04713 | 8.56976 | 359 ft | 13 kts | 205° |
| 2026-04-15 05:24 | 50.04634 | 8.56921 | 360 ft | 12 kts | 200° |
| 2026-04-15 05:25 | 50.04562 | 8.56894 | 361 ft | 8 kts | 193° |
| 2026-04-15 05:25 | 50.04492 | 8.56869 | 359 ft | 13 kts | 193° |
| 2026-04-15 05:25 | 50.04404 | 8.56844 | 362 ft | 12 kts | 187° |
| 2026-04-15 05:25 | 50.04327 | 8.56821 | 360 ft | 11 kts | 192° |
| 2026-04-15 05:26 | 50.04249 | 8.56773 | 360 ft | 12 kts | 230° |
| 2026-04-15 05:26 | 50.04213 | 8.56637 | 357 ft | 15 kts | 249° |
| 2026-04-15 05:26 | 50.04173 | 8.56469 | 357 ft | 19 kts | 250° |
| 2026-04-15 05:26 | 50.04124 | 8.56260 | 357 ft | 22 kts | 250° |
| 2026-04-15 05:27 | 50.04064 | 8.56018 | 357 ft | 25 kts | 249° |
| 2026-04-15 05:27 | 50.03999 | 8.55747 | 353 ft | 28 kts | 249° |
| 2026-04-15 05:27 | 50.03932 | 8.55460 | 356 ft | 28 kts | 250° |
| 2026-04-15 05:27 | 50.03864 | 8.55179 | 356 ft | 25 kts | 250° |
| 2026-04-15 05:28 | 50.03808 | 8.54942 | 357 ft | 24 kts | 249° |
| 2026-04-15 05:28 | 50.03753 | 8.54737 | 349 ft | 15 kts | 232° |
| 2026-04-15 05:28 | 50.03666 | 8.54719 | 346 ft | 13 kts | 160° |
| 2026-04-15 05:28 | 50.03590 | 8.54807 | 346 ft | 16 kts | 100° |
| 2026-04-15 05:29 | 50.03648 | 8.55073 | 348 ft | 54 kts | 70° |
| 2026-04-15 05:29 | 50.03864 | 8.55986 | 352 ft | 123 kts | 69° |
| 2026-04-15 05:29 | 50.04210 | 8.57445 | 582 ft | 153 kts | 69° |
| 2026-04-15 05:29 | 50.04573 | 8.58990 | 1357 ft | 152 kts | 71° |
| 2026-04-15 05:30 | 50.04935 | 8.60585 | 1981 ft | 165 kts | 73° |
| 2026-04-15 05:30 | 50.05334 | 8.62385 | 2398 ft | 188 kts | 72° |
| 2026-04-15 05:30 | 50.05789 | 8.64439 | 2820 ft | 213 kts | 72° |
| 2026-04-15 05:30 | 50.06286 | 8.66665 | 3610 ft | 221 kts | 71° |
| 2026-04-15 05:31 | 50.06798 | 8.68942 | 4535 ft | 224 kts | 69° |
| 2026-04-15 05:31 | 50.07628 | 8.70996 | 5442 ft | 229 kts | 44° |
| 2026-04-15 05:31 | 50.09036 | 8.72364 | 5961 ft | 253 kts | 23° |
| 2026-04-15 05:31 | 50.10713 | 8.73461 | 6645 ft | 268 kts | 22° |
| 2026-04-15 05:32 | 50.12452 | 8.74608 | 7499 ft | 274 kts | 23° |
| 2026-04-15 05:32 | 50.14221 | 8.75784 | 8410 ft | 279 kts | 23° |
| 2026-04-15 05:32 | 50.16015 | 8.76983 | 9342 ft | 283 kts | 23° |
| 2026-04-15 05:32 | 50.17839 | 8.78210 | 10245 ft | 288 kts | 23° |
| 2026-04-15 05:33 | 50.19738 | 8.79492 | 10709 ft | 309 kts | 23° |
| 2026-04-15 05:33 | 50.21766 | 8.80856 | 11193 ft | 324 kts | 21° |
| 2026-04-15 05:33 | 50.23982 | 8.81603 | 11923 ft | 330 kts | 0° |
| 2026-04-15 05:33 | 50.26245 | 8.80993 | 12717 ft | 334 kts | 338° |
| 2026-04-15 05:34 | 50.28211 | 8.79069 | 13528 ft | 337 kts | 315° |
| 2026-04-15 05:34 | 50.29557 | 8.76082 | 14304 ft | 339 kts | 293° |
| 2026-04-15 05:34 | 50.30359 | 8.72596 | 15052 ft | 342 kts | 289° |
| 2026-04-15 05:34 | 50.31124 | 8.69060 | 15777 ft | 345 kts | 289° |
| 2026-04-15 05:35 | 50.31895 | 8.65485 | 16494 ft | 348 kts | 289° |
| 2026-04-15 05:35 | 50.32677 | 8.61881 | 17217 ft | 352 kts | 290° |
| 2026-04-15 05:35 | 50.33467 | 8.58247 | 17968 ft | 354 kts | 290° |
| 2026-04-15 05:35 | 50.34265 | 8.54582 | 18677 ft | 357 kts | 290° |
| 2026-04-15 05:36 | 50.35068 | 8.50884 | 19283 ft | 360 kts | 291° |
| 2026-04-15 05:36 | 50.36106 | 8.47306 | 19870 ft | 362 kts | 300° |
| 2026-04-15 05:36 | 50.37309 | 8.43820 | 20479 ft | 366 kts | 300° |
| 2026-04-15 05:36 | 50.38525 | 8.40298 | 21089 ft | 369 kts | 300° |
| 2026-04-15 05:37 | 50.39753 | 8.36745 | 21698 ft | 372 kts | 300° |
| 2026-04-15 05:37 | 50.40990 | 8.33161 | 22303 ft | 376 kts | 300° |
| 2026-04-15 05:37 | 50.42237 | 8.29541 | 22900 ft | 379 kts | 300° |
| 2026-04-15 05:37 | 50.43492 | 8.25887 | 23499 ft | 382 kts | 300° |
| 2026-04-15 05:38 | 50.44756 | 8.22197 | 24048 ft | 386 kts | 300° |
| 2026-04-15 05:38 | 50.46030 | 8.18472 | 24561 ft | 388 kts | 300° |
| 2026-04-15 05:38 | 50.47307 | 8.14740 | 25094 ft | 389 kts | 300° |
| 2026-04-15 05:38 | 50.48585 | 8.10989 | 25604 ft | 390 kts | 300° |
| 2026-04-15 05:39 | 50.49867 | 8.07217 | 26124 ft | 392 kts | 301° |
| 2026-04-15 05:39 | 50.51148 | 8.03442 | 26621 ft | 393 kts | 301° |
| 2026-04-15 05:39 | 50.52437 | 7.99644 | 27111 ft | 394 kts | 301° |
| 2026-04-15 05:39 | 50.53728 | 7.95845 | 27583 ft | 395 kts | 301° |
| 2026-04-15 05:40 | 50.55026 | 7.92028 | 28047 ft | 397 kts | 301° |
| 2026-04-15 05:40 | 50.56325 | 7.88199 | 28515 ft | 397 kts | 301° |
| 2026-04-15 05:40 | 50.57620 | 7.84354 | 28974 ft | 399 kts | 301° |
| 2026-04-15 05:40 | 50.58921 | 7.80488 | 29417 ft | 400 kts | 301° |
| 2026-04-15 05:41 | 50.60225 | 7.76614 | 29846 ft | 401 kts | 301° |
| 2026-04-15 05:41 | 50.61532 | 7.72724 | 30276 ft | 403 kts | 301° |
| 2026-04-15 05:41 | 50.62842 | 7.68816 | 30634 ft | 404 kts | 301° |
| 2026-04-15 05:41 | 50.64154 | 7.64897 | 31001 ft | 404 kts | 301° |
| 2026-04-15 05:42 | 50.65467 | 7.60975 | 31340 ft | 405 kts | 301° |
| 2026-04-15 05:42 | 50.66780 | 7.57043 | 31671 ft | 407 kts | 301° |
| 2026-04-15 05:42 | 50.68097 | 7.53086 | 32010 ft | 407 kts | 301° |
| 2026-04-15 05:42 | 50.69409 | 7.49141 | 32453 ft | 405 kts | 301° |
| 2026-04-15 05:43 | 50.70712 | 7.45217 | 32861 ft | 403 kts | 301° |
| 2026-04-15 05:43 | 50.72005 | 7.41312 | 33291 ft | 401 kts | 301° |
| 2026-04-15 05:43 | 50.73295 | 7.37414 | 33748 ft | 399 kts | 301° |
| 2026-04-15 05:43 | 50.74621 | 7.33581 | 34165 ft | 396 kts | 305° |
| 2026-04-15 05:44 | 50.77711 | 7.26582 | 34275 ft | 378 kts | 308° |
| 2026-04-15 05:44 | 50.80714 | 7.19884 | 34273 ft | 372 kts | 308° |
| 2026-04-15 05:45 | 50.83690 | 7.13217 | 34273 ft | 371 kts | 308° |
| 2026-04-15 05:45 | 50.86159 | 7.07666 | 34276 ft | 371 kts | 308° |
| 2026-04-15 05:46 | 50.89607 | 6.99876 | 34274 ft | 373 kts | 308° |
| 2026-04-15 05:46 | 50.92590 | 6.93147 | 34269 ft | 373 kts | 308° |
| 2026-04-15 05:47 | 50.95089 | 6.87502 | 34246 ft | 373 kts | 308° |
| 2026-04-15 05:47 | 50.98061 | 6.80754 | 34246 ft | 373 kts | 307° |
| 2026-04-15 05:48 | 51.01003 | 6.74039 | 34237 ft | 373 kts | 307° |
| 2026-04-15 05:48 | 51.03960 | 6.67277 | 34236 ft | 373 kts | 307° |
| 2026-04-15 05:49 | 51.06919 | 6.60501 | 34211 ft | 373 kts | 307° |
| 2026-04-15 05:49 | 51.09879 | 6.53717 | 34220 ft | 374 kts | 307° |
| 2026-04-15 05:50 | 51.12847 | 6.46903 | 34225 ft | 375 kts | 307° |
| 2026-04-15 05:51 | 51.17272 | 6.36690 | 34244 ft | 375 kts | 307° |
| 2026-04-15 05:51 | 51.20226 | 6.29849 | 34239 ft | 375 kts | 306° |
| 2026-04-15 05:52 | 51.23176 | 6.23000 | 34237 ft | 375 kts | 306° |
| 2026-04-15 05:52 | 51.26117 | 6.16140 | 34214 ft | 375 kts | 306° |
| 2026-04-15 05:53 | 51.29035 | 6.09283 | 34207 ft | 376 kts | 305° |
| 2026-04-15 05:53 | 51.31903 | 6.02292 | 34205 ft | 376 kts | 304° |
| 2026-04-15 05:54 | 51.34747 | 5.95269 | 34213 ft | 377 kts | 304° |
| 2026-04-15 05:54 | 51.37646 | 5.88297 | 34208 ft | 376 kts | 309° |
| 2026-04-15 05:55 | 51.41400 | 5.82508 | 34199 ft | 375 kts | 318° |
| 2026-04-15 05:55 | 51.45315 | 5.76978 | 34214 ft | 375 kts | 318° |
| 2026-04-15 05:56 | 51.49218 | 5.71435 | 34206 ft | 375 kts | 317° |
| 2026-04-15 05:56 | 51.53114 | 5.65862 | 34202 ft | 375 kts | 317° |
| 2026-04-15 05:57 | 51.57015 | 5.60289 | 34201 ft | 376 kts | 317° |
| 2026-04-15 05:57 | 51.60921 | 5.54700 | 34204 ft | 376 kts | 317° |
| 2026-04-15 05:58 | 51.64830 | 5.49103 | 34205 ft | 376 kts | 317° |
| 2026-04-15 05:58 | 51.68735 | 5.43487 | 34215 ft | 376 kts | 317° |
| 2026-04-15 05:59 | 51.72627 | 5.37865 | 34216 ft | 375 kts | 317° |
| 2026-04-15 05:59 | 51.76510 | 5.32238 | 34195 ft | 375 kts | 316° |
| 2026-04-15 06:00 | 51.80398 | 5.26594 | 34186 ft | 376 kts | 316° |
| 2026-04-15 06:00 | 51.84290 | 5.20936 | 34186 ft | 377 kts | 316° |
| 2026-04-15 06:01 | 51.88192 | 5.15263 | 34188 ft | 377 kts | 316° |
| 2026-04-15 06:01 | 51.92089 | 5.09584 | 34184 ft | 377 kts | 316° |
| 2026-04-15 06:02 | 51.95922 | 5.03976 | 34193 ft | 377 kts | 316° |
| 2026-04-15 06:02 | 51.99808 | 4.98271 | 34185 ft | 377 kts | 316° |
| 2026-04-15 06:03 | 52.03690 | 4.92561 | 34178 ft | 377 kts | 316° |
| 2026-04-15 06:03 | 52.07577 | 4.86841 | 34168 ft | 377 kts | 316° |
| 2026-04-15 06:04 | 52.11456 | 4.81090 | 34164 ft | 378 kts | 315° |
| 2026-04-15 06:04 | 52.15346 | 4.75328 | 34166 ft | 379 kts | 315° |
| 2026-04-15 06:05 | 52.19240 | 4.69546 | 34182 ft | 379 kts | 315° |
| 2026-04-15 06:05 | 52.23136 | 4.63749 | 34178 ft | 379 kts | 315° |
| 2026-04-15 06:06 | 52.27028 | 4.57936 | 34181 ft | 379 kts | 315° |
| 2026-04-15 06:06 | 52.30919 | 4.52115 | 34178 ft | 379 kts | 315° |
| 2026-04-15 06:07 | 52.34807 | 4.46282 | 34178 ft | 379 kts | 315° |
| 2026-04-15 06:07 | 52.38694 | 4.40443 | 34178 ft | 379 kts | 315° |
| 2026-04-15 06:08 | 52.42574 | 4.34586 | 34172 ft | 379 kts | 315° |
| 2026-04-15 06:08 | 52.46451 | 4.28725 | 34191 ft | 379 kts | 315° |
| 2026-04-15 06:09 | 52.50323 | 4.22858 | 34187 ft | 378 kts | 315° |
| 2026-04-15 06:09 | 52.54183 | 4.16988 | 34180 ft | 378 kts | 315° |
| 2026-04-15 06:10 | 52.58035 | 4.11117 | 34176 ft | 378 kts | 315° |
| 2026-04-15 06:10 | 52.61883 | 4.05245 | 34177 ft | 378 kts | 315° |
| 2026-04-15 06:11 | 52.65729 | 3.99365 | 34163 ft | 378 kts | 314° |
| 2026-04-15 06:11 | 52.69579 | 3.93451 | 34151 ft | 378 kts | 314° |
| 2026-04-15 06:12 | 52.73434 | 3.87525 | 34155 ft | 379 kts | 314° |
| 2026-04-15 06:12 | 52.77292 | 3.81571 | 34134 ft | 380 kts | 314° |
| 2026-04-15 06:13 | 52.81146 | 3.75612 | 34144 ft | 380 kts | 314° |
| 2026-04-15 06:13 | 52.84999 | 3.69639 | 34142 ft | 380 kts | 314° |
| 2026-04-15 06:14 | 52.88850 | 3.63656 | 34130 ft | 380 kts | 314° |
| 2026-04-15 06:14 | 52.92700 | 3.57664 | 34136 ft | 379 kts | 314° |
| 2026-04-15 06:15 | 52.96538 | 3.51665 | 34149 ft | 379 kts | 313° |
| 2026-04-15 06:15 | 53.00379 | 3.45647 | 34139 ft | 380 kts | 313° |
| 2026-04-15 06:16 | 53.04222 | 3.39614 | 34121 ft | 380 kts | 313° |
| 2026-04-15 06:16 | 53.08007 | 3.33489 | 34119 ft | 378 kts | 307° |
| 2026-04-15 06:17 | 53.10581 | 3.26002 | 34117 ft | 372 kts | 287° |
| 2026-04-15 06:17 | 53.11770 | 3.17634 | 34109 ft | 372 kts | 282° |
| 2026-04-15 06:18 | 53.12885 | 3.09268 | 34110 ft | 373 kts | 282° |
| 2026-04-15 06:18 | 53.14007 | 3.00841 | 34110 ft | 373 kts | 281° |
| 2026-04-15 06:19 | 53.15123 | 2.92391 | 34107 ft | 374 kts | 281° |
| 2026-04-15 06:19 | 53.16228 | 2.83918 | 34103 ft | 375 kts | 281° |
| 2026-04-15 06:20 | 53.17324 | 2.75433 | 34101 ft | 375 kts | 281° |
| 2026-04-15 06:20 | 53.18410 | 2.66940 | 34099 ft | 375 kts | 281° |
| 2026-04-15 06:21 | 53.19494 | 2.58439 | 34089 ft | 375 kts | 281° |
| 2026-04-15 06:21 | 53.20811 | 2.50013 | 34096 ft | 378 kts | 290° |
| 2026-04-15 06:22 | 53.23471 | 2.42396 | 34095 ft | 382 kts | 299° |
| 2026-04-15 06:22 | 53.26326 | 2.34912 | 34092 ft | 382 kts | 298° |
| 2026-04-15 06:23 | 53.29163 | 2.27411 | 34091 ft | 382 kts | 298° |
| 2026-04-15 06:23 | 53.32003 | 2.19904 | 34085 ft | 382 kts | 298° |
| 2026-04-15 06:24 | 53.34834 | 2.12381 | 34080 ft | 382 kts | 298° |
| 2026-04-15 06:24 | 53.37673 | 2.04847 | 34084 ft | 382 kts | 298° |
| 2026-04-15 06:25 | 53.40511 | 1.97296 | 34069 ft | 384 kts | 298° |
| 2026-04-15 06:25 | 53.43323 | 1.89751 | 34070 ft | 384 kts | 297° |
| 2026-04-15 06:26 | 53.46159 | 1.82134 | 34057 ft | 385 kts | 297° |
| 2026-04-15 06:26 | 53.48996 | 1.74502 | 34058 ft | 385 kts | 297° |
| 2026-04-15 06:27 | 53.51829 | 1.66852 | 34061 ft | 386 kts | 297° |
| 2026-04-15 06:27 | 53.54650 | 1.59187 | 34052 ft | 386 kts | 297° |
| 2026-04-15 06:28 | 53.57469 | 1.51517 | 34048 ft | 386 kts | 297° |
| 2026-04-15 06:28 | 53.60294 | 1.43822 | 34035 ft | 387 kts | 297° |
| 2026-04-15 06:29 | 53.63119 | 1.36102 | 34036 ft | 387 kts | 297° |
| 2026-04-15 06:29 | 53.65940 | 1.28360 | 34037 ft | 388 kts | 296° |
| 2026-04-15 06:30 | 53.68759 | 1.20606 | 34029 ft | 388 kts | 296° |
| 2026-04-15 06:30 | 53.71577 | 1.12819 | 34029 ft | 388 kts | 296° |
| 2026-04-15 06:31 | 53.74389 | 1.05030 | 34049 ft | 388 kts | 296° |
| 2026-04-15 06:31 | 53.77201 | 0.97227 | 34025 ft | 389 kts | 296° |
| 2026-04-15 06:32 | 53.79540 | 0.90717 | 34016 ft | 390 kts | 296° |
| 2026-04-15 06:32 | 53.82356 | 0.82855 | 34015 ft | 391 kts | 296° |
| 2026-04-15 06:33 | 53.85166 | 0.74973 | 34006 ft | 391 kts | 295° |
| 2026-04-15 06:33 | 53.87966 | 0.67081 | 34010 ft | 391 kts | 295° |
| 2026-04-15 06:34 | 53.90771 | 0.59175 | 34002 ft | 391 kts | 295° |
| 2026-04-15 06:34 | 53.93570 | 0.51265 | 34019 ft | 391 kts | 295° |
| 2026-04-15 06:35 | 53.96364 | 0.43327 | 34001 ft | 392 kts | 294° |
| 2026-04-15 06:35 | 53.99155 | 0.35345 | 33994 ft | 393 kts | 294° |
| 2026-04-15 06:36 | 54.01939 | 0.27355 | 34003 ft | 393 kts | 294° |
| 2026-04-15 06:36 | 54.05332 | 0.19922 | 33989 ft | 402 kts | 305° |
| 2026-04-15 06:37 | 54.09034 | 0.12804 | 33987 ft | 402 kts | 305° |
| 2026-04-15 06:37 | 54.12733 | 0.05667 | 33985 ft | 401 kts | 304° |
| 2026-04-15 06:38 | 54.16420 | -0.01479 | 33987 ft | 402 kts | 304° |
| 2026-04-15 06:38 | 54.20111 | -0.08670 | 33978 ft | 403 kts | 304° |
| 2026-04-15 06:39 | 54.23817 | -0.15889 | 33958 ft | 404 kts | 304° |
| 2026-04-15 06:39 | 54.27496 | -0.23086 | 33967 ft | 405 kts | 304° |
| 2026-04-15 06:40 | 54.31202 | -0.30355 | 33969 ft | 405 kts | 304° |
| 2026-04-15 06:40 | 54.34907 | -0.37637 | 33964 ft | 406 kts | 303° |
| 2026-04-15 06:41 | 54.38610 | -0.44945 | 33956 ft | 406 kts | 303° |
| 2026-04-15 06:41 | 54.42306 | -0.52271 | 33956 ft | 406 kts | 303° |
| 2026-04-15 06:42 | 54.46000 | -0.59612 | 33953 ft | 406 kts | 303° |
| 2026-04-15 06:42 | 54.49700 | -0.66961 | 33960 ft | 406 kts | 303° |
| 2026-04-15 06:43 | 54.53387 | -0.74317 | 33959 ft | 406 kts | 303° |
| 2026-04-15 06:43 | 54.57044 | -0.81646 | 33950 ft | 406 kts | 303° |
| 2026-04-15 06:44 | 54.60721 | -0.89034 | 33939 ft | 406 kts | 303° |
| 2026-04-15 06:44 | 54.64397 | -0.96439 | 33933 ft | 406 kts | 303° |
| 2026-04-15 06:45 | 54.68073 | -1.03859 | 33927 ft | 406 kts | 303° |
| 2026-04-15 06:45 | 54.71753 | -1.11354 | 33927 ft | 416 kts | 302° |
| 2026-04-15 06:46 | 54.75565 | -1.19171 | 33683 ft | 428 kts | 303° |
| 2026-04-15 06:46 | 54.77476 | -1.23063 | 33311 ft | 420 kts | 303° |
| 2026-04-15 06:46 | 54.79361 | -1.26874 | 32988 ft | 413 kts | 303° |
| 2026-04-15 06:46 | 54.81219 | -1.30634 | 32667 ft | 409 kts | 303° |
| 2026-04-15 06:47 | 54.83102 | -1.34333 | 32346 ft | 411 kts | 309° |
| 2026-04-15 06:47 | 54.85308 | -1.37535 | 31918 ft | 415 kts | 314° |
| 2026-04-15 06:47 | 54.87562 | -1.40653 | 31456 ft | 412 kts | 315° |
| 2026-04-15 06:47 | 54.89800 | -1.43728 | 31007 ft | 410 kts | 315° |
| 2026-04-15 06:48 | 54.92031 | -1.46790 | 30558 ft | 407 kts | 315° |
| 2026-04-15 06:48 | 54.94238 | -1.49830 | 30123 ft | 404 kts | 315° |
| 2026-04-15 06:48 | 54.96436 | -1.52870 | 29642 ft | 402 kts | 315° |
| 2026-04-15 06:48 | 54.98612 | -1.55889 | 29131 ft | 399 kts | 315° |
| 2026-04-15 06:49 | 55.00773 | -1.58901 | 28644 ft | 397 kts | 315° |
| 2026-04-15 06:49 | 55.02925 | -1.61907 | 28153 ft | 394 kts | 316° |
| 2026-04-15 06:49 | 55.05057 | -1.64886 | 27702 ft | 392 kts | 315° |
| 2026-04-15 06:50 | 55.09300 | -1.70828 | 26764 ft | 390 kts | 315° |
| 2026-04-15 06:50 | 55.11407 | -1.73787 | 26311 ft | 388 kts | 315° |
| 2026-04-15 06:50 | 55.13509 | -1.76740 | 25859 ft | 386 kts | 316° |
| 2026-04-15 06:50 | 55.15599 | -1.79676 | 25412 ft | 384 kts | 316° |
| 2026-04-15 06:51 | 55.17675 | -1.82599 | 24984 ft | 382 kts | 316° |
| 2026-04-15 06:51 | 55.19739 | -1.85505 | 24557 ft | 380 kts | 316° |
| 2026-04-15 06:51 | 55.21794 | -1.88402 | 24139 ft | 378 kts | 316° |
| 2026-04-15 06:51 | 55.23832 | -1.91280 | 23714 ft | 376 kts | 316° |
| 2026-04-15 06:52 | 55.25861 | -1.94155 | 23242 ft | 375 kts | 316° |
| 2026-04-15 06:52 | 55.27884 | -1.97030 | 22725 ft | 374 kts | 316° |
| 2026-04-15 06:52 | 55.29904 | -1.99906 | 22205 ft | 373 kts | 316° |
| 2026-04-15 06:52 | 55.31888 | -2.02732 | 21713 ft | 372 kts | 316° |
| 2026-04-15 06:53 | 55.33894 | -2.05586 | 21226 ft | 371 kts | 316° |
| 2026-04-15 06:53 | 55.35899 | -2.08437 | 20739 ft | 370 kts | 316° |
| 2026-04-15 06:53 | 55.37899 | -2.11286 | 20252 ft | 369 kts | 316° |
| 2026-04-15 06:53 | 55.39889 | -2.14132 | 19791 ft | 369 kts | 316° |
| 2026-04-15 06:54 | 55.41875 | -2.16980 | 19336 ft | 368 kts | 316° |
| 2026-04-15 06:54 | 55.43857 | -2.19821 | 18878 ft | 367 kts | 316° |
| 2026-04-15 06:54 | 55.45831 | -2.22652 | 18444 ft | 366 kts | 316° |
| 2026-04-15 06:54 | 55.47801 | -2.25482 | 17976 ft | 365 kts | 316° |
| 2026-04-15 06:55 | 55.49769 | -2.28317 | 17465 ft | 364 kts | 316° |
| 2026-04-15 06:55 | 55.51732 | -2.31149 | 16966 ft | 364 kts | 316° |
| 2026-04-15 06:55 | 55.53689 | -2.33974 | 16473 ft | 363 kts | 316° |
| 2026-04-15 06:55 | 55.55643 | -2.36794 | 15979 ft | 362 kts | 316° |
| 2026-04-15 06:56 | 55.57589 | -2.39602 | 15500 ft | 361 kts | 316° |
| 2026-04-15 06:56 | 55.59532 | -2.42415 | 15028 ft | 360 kts | 316° |
| 2026-04-15 06:56 | 55.61460 | -2.45211 | 14564 ft | 358 kts | 316° |
| 2026-04-15 06:56 | 55.63380 | -2.48002 | 14104 ft | 356 kts | 316° |
| 2026-04-15 06:57 | 55.65288 | -2.50781 | 13636 ft | 354 kts | 316° |
| 2026-04-15 06:57 | 55.67187 | -2.53548 | 13143 ft | 352 kts | 316° |
| 2026-04-15 06:57 | 55.69072 | -2.56293 | 12643 ft | 350 kts | 316° |
| 2026-04-15 06:57 | 55.70942 | -2.59022 | 12147 ft | 347 kts | 316° |
| 2026-04-15 06:58 | 55.72798 | -2.61734 | 11671 ft | 345 kts | 316° |
| 2026-04-15 06:58 | 55.74643 | -2.64428 | 11199 ft | 342 kts | 316° |
| 2026-04-15 06:58 | 55.76477 | -2.67107 | 10726 ft | 340 kts | 316° |
| 2026-04-15 06:58 | 55.78297 | -2.69774 | 10254 ft | 337 kts | 316° |
| 2026-04-15 06:59 | 55.80098 | -2.72417 | 9797 ft | 335 kts | 316° |
| 2026-04-15 06:59 | 55.81886 | -2.75045 | 9302 ft | 332 kts | 316° |
| 2026-04-15 06:59 | 55.83660 | -2.77658 | 8801 ft | 330 kts | 316° |
| 2026-04-15 06:59 | 55.85420 | -2.80253 | 8309 ft | 327 kts | 316° |
| 2026-04-15 07:00 | 55.87163 | -2.82827 | 7842 ft | 324 kts | 316° |
| 2026-04-15 07:00 | 55.88886 | -2.85377 | 7364 ft | 321 kts | 315° |
| 2026-04-15 07:00 | 55.90596 | -2.87913 | 6886 ft | 318 kts | 315° |
| 2026-04-15 07:00 | 55.92290 | -2.90427 | 6424 ft | 316 kts | 315° |
| 2026-04-15 07:01 | 55.93971 | -2.92920 | 5946 ft | 313 kts | 315° |
| 2026-04-15 07:01 | 55.95636 | -2.95388 | 5451 ft | 310 kts | 315° |
| 2026-04-15 07:01 | 55.97284 | -2.97836 | 4963 ft | 307 kts | 315° |
| 2026-04-15 07:01 | 55.98923 | -3.00277 | 4490 ft | 305 kts | 314° |
| 2026-04-15 07:02 | 56.00538 | -3.02706 | 3989 ft | 302 kts | 311° |
| 2026-04-15 07:02 | 56.01701 | -3.05584 | 3506 ft | 272 kts | 283° |
| 2026-04-15 07:02 | 56.02057 | -3.08710 | 3096 ft | 246 kts | 271° |
| 2026-04-15 07:02 | 56.02409 | -3.11574 | 3006 ft | 223 kts | 273° |
| 2026-04-15 07:03 | 56.02521 | -3.14132 | 2857 ft | 194 kts | 253° |
| 2026-04-15 07:03 | 56.02081 | -3.16235 | 2656 ft | 173 kts | 233° |
| 2026-04-15 07:03 | 56.01490 | -3.17996 | 2422 ft | 157 kts | 233° |
| 2026-04-15 07:03 | 56.00957 | -3.19589 | 2200 ft | 141 kts | 233° |
| 2026-04-15 07:04 | 56.00477 | -3.21018 | 2023 ft | 130 kts | 232° |
| 2026-04-15 07:04 | 56.00017 | -3.22382 | 1862 ft | 127 kts | 232° |
| 2026-04-15 07:04 | 55.99564 | -3.23725 | 1696 ft | 125 kts | 231° |
| 2026-04-15 07:04 | 55.99115 | -3.25054 | 1511 ft | 124 kts | 232° |
| 2026-04-15 07:05 | 55.98670 | -3.26374 | 1352 ft | 124 kts | 232° |
| 2026-04-15 07:05 | 55.98226 | -3.27688 | 1175 ft | 124 kts | 233° |
| 2026-04-15 07:05 | 55.97773 | -3.29030 | 994 ft | 128 kts | 233° |
| 2026-04-15 07:05 | 55.97321 | -3.30371 | 818 ft | 126 kts | 234° |
| 2026-04-15 07:06 | 55.96870 | -3.31708 | 666 ft | 125 kts | 236° |
| 2026-04-15 07:06 | 55.96421 | -3.33036 | 503 ft | 124 kts | 235° |
| 2026-04-15 07:06 | 55.95980 | -3.34361 | 325 ft | 124 kts | 236° |
| 2026-04-15 07:06 | 55.95538 | -3.35673 | 159 ft | 123 kts | 233° |
| 2026-04-15 07:07 | 55.95124 | -3.36871 | 114 ft | 95 kts | 237° |
| 2026-04-15 07:07 | 55.94875 | -3.37617 | 113 ft | 45 kts | 238° |
| 2026-04-15 07:07 | 55.94758 | -3.37963 | 116 ft | 26 kts | 239° |
| 2026-04-15 07:07 | 55.94674 | -3.38045 | 115 ft | 12 kts | 153° |
| 2026-04-15 07:08 | 55.94600 | -3.37956 | 114 ft | 14 kts | 134° |
| 2026-04-15 07:08 | 55.94618 | -3.37802 | 115 ft | 13 kts | 58° |
| 2026-04-15 07:08 | 55.94666 | -3.37663 | 115 ft | 13 kts | 59° |
| 2026-04-15 07:08 | 55.94717 | -3.37511 | 115 ft | 17 kts | 59° |
| 2026-04-15 07:09 | 55.94791 | -3.37293 | 113 ft | 24 kts | 59° |
| 2026-04-15 07:09 | 55.94882 | -3.37026 | 115 ft | 26 kts | 59° |
| 2026-04-15 07:09 | 55.94977 | -3.36738 | 114 ft | 28 kts | 58° |
| 2026-04-15 07:09 | 55.95083 | -3.36427 | 115 ft | 29 kts | 58° |
| 2026-04-15 07:10 | 55.95132 | -3.36212 | 115 ft | 12 kts | 105° |
| 2026-04-15 07:10 | 55.95105 | -3.36069 | 115 ft | 12 kts | 109° |
| 2026-04-15 07:10 | 55.95072 | -3.35922 | 114 ft | 13 kts | 118° |
| 2026-04-15 07:10 | 55.95015 | -3.35835 | 116 ft | 11 kts | 176° |
| 2026-04-15 07:11 | 55.94933 | -3.35841 | 114 ft | 13 kts | 148° |
| 2026-04-15 07:11 | 55.94885 | -3.35762 | 116 ft | 6 kts | 180° |
| 2026-04-15 07:11 | 55.94843 | -3.35798 | 115 ft | 6 kts | 209° |
| 2026-04-15 07:11 | 55.94834 | -3.35806 | 114 ft | 0 kts | 209° |
| 2026-04-15 07:14 | 55.94834 | -3.35807 | 114 ft | 0 kts | 211° |